Terminal Aerodrome Forecast
Issued by NWS

Home | Current Version | Previous Version | Text Only | Print | Product List | Glossary On
Versions: 1 2 3 4 5 6 7 8 9 10 11 12 13 14 15 16 17 18 19 20 21
000
FTUS43 KEAX 221728
TAFMKC
TAF
KMKC 221728Z 2218/2318 06006KT 3SM BR OVC005
      TEMPO 2219/2221 3SM -FZRA BR
     FM222100 10006KT 3SM -RA OVC005
     FM230000 VRB05KT 2SM -DZ OVC005
     FM230600 27005KT P6SM OVC003
     FM231600 30005KT P6SM BKN010=

USA.gov is the U.S. government's official web portal to all federal, state and local government web resources and services.